sensor_id;sensor_type;location;lat;lon;timestamp;temperature;humidity
21271;DHT22;10795;50.796;3.860;2023-03-04T00:01:59;7.00;99.90
21271;DHT22;10795;50.796;3.860;2023-03-04T00:04:25;7.00;99.90
21271;DHT22;10795;50.796;3.860;2023-03-04T00:06:51;6.90;99.90
21271;DHT22;10795;50.796;3.860;2023-03-04T00:09:17;7.00;99.90
21271;DHT22;10795;50.796;3.860;2023-03-04T00:11:42;7.10;99.90
21271;DHT22;10795;50.796;3.860;2023-03-04T00:14:08;6.80;99.90
21271;DHT22;10795;50.796;3.860;2023-03-04T00:16:34;6.70;99.90
21271;DHT22;10795;50.796;3.860;2023-03-04T00:19:00;6.90;99.90
21271;DHT22;10795;50.796;3.860;2023-03-04T00:21:26;7.10;99.90
21271;DHT22;10795;50.796;3.860;2023-03-04T00:23:51;6.50;99.90
21271;DHT22;10795;50.796;3.860;2023-03-04T00:26:18;6.70;99.90
21271;DHT22;10795;50.796;3.860;2023-03-04T00:28:45;6.30;99.90
21271;DHT22;10795;50.796;3.860;2023-03-04T00:31:11;6.30;99.90
21271;DHT22;10795;50.796;3.860;2023-03-04T00:33:37;6.10;99.90
21271;DHT22;10795;50.796;3.860;2023-03-04T00:36:04;6.20;99.90
21271;DHT22;10795;50.796;3.860;2023-03-04T00:38:29;6.30;99.90
21271;DHT22;10795;50.796;3.860;2023-03-04T00:40:55;6.40;99.90
21271;DHT22;10795;50.796;3.860;2023-03-04T00:43:21;6.60;99.90
21271;DHT22;10795;50.796;3.860;2023-03-04T00:45:47;6.80;99.90
21271;DHT22;10795;50.796;3.860;2023-03-04T00:48:13;6.60;99.90
21271;DHT22;10795;50.796;3.860;2023-03-04T00:50:41;6.30;99.90
21271;DHT22;10795;50.796;3.860;2023-03-04T00:53:07;6.40;99.90
21271;DHT22;10795;50.796;3.860;2023-03-04T00:55:33;6.70;99.90
21271;DHT22;10795;50.796;3.860;2023-03-04T00:57:59;6.60;99.90
21271;DHT22;10795;50.796;3.860;2023-03-04T01:00:25;6.60;99.90
21271;DHT22;10795;50.796;3.860;2023-03-04T01:02:51;6.60;99.90
21271;DHT22;10795;50.796;3.860;2023-03-04T01:05:17;6.60;99.90
21271;DHT22;10795;50.796;3.860;2023-03-04T01:07:43;6.90;99.90
21271;DHT22;10795;50.796;3.860;2023-03-04T01:10:10;7.00;99.90
21271;DHT22;10795;50.796;3.860;2023-03-04T01:12:37;7.10;99.90
21271;DHT22;10795;50.796;3.860;2023-03-04T01:15:05;6.80;99.90
21271;DHT22;10795;50.796;3.860;2023-03-04T01:17:31;6.90;99.90
21271;DHT22;10795;50.796;3.860;2023-03-04T01:19:57;6.70;99.90
21271;DHT22;10795;50.796;3.860;2023-03-04T01:22:22;6.40;99.90
21271;DHT22;10795;50.796;3.860;2023-03-04T01:24:48;6.40;99.90
21271;DHT22;10795;50.796;3.860;2023-03-04T01:27:14;6.00;99.90
21271;DHT22;10795;50.796;3.860;2023-03-04T01:29:40;6.10;99.90
21271;DHT22;10795;50.796;3.860;2023-03-04T01:32:05;5.90;99.90
21271;DHT22;10795;50.796;3.860;2023-03-04T01:34:31;5.60;99.90
21271;DHT22;10795;50.796;3.860;2023-03-04T01:36:57;5.50;99.90
21271;DHT22;10795;50.796;3.860;2023-03-04T01:39:23;5.50;99.90
21271;DHT22;10795;50.796;3.860;2023-03-04T01:41:50;5.60;99.90
21271;DHT22;10795;50.796;3.860;2023-03-04T01:44:16;5.60;99.90
21271;DHT22;10795;50.796;3.860;2023-03-04T01:46:48;5.90;99.90
21271;DHT22;10795;50.796;3.860;2023-03-04T01:49:15;6.40;99.90
21271;DHT22;10795;50.796;3.860;2023-03-04T01:51:51;6.40;99.90
21271;DHT22;10795;50.796;3.860;2023-03-04T01:54:18;5.90;99.90
21271;DHT22;10795;50.796;3.860;2023-03-04T01:56:46;5.60;99.90
21271;DHT22;10795;50.796;3.860;2023-03-04T01:59:19;5.40;99.90
21271;DHT22;10795;50.796;3.860;2023-03-04T02:01:48;5.40;99.90
21271;DHT22;10795;50.796;3.860;2023-03-04T02:04:16;5.60;99.90
21271;DHT22;10795;50.796;3.860;2023-03-04T02:06:44;5.50;99.90
21271;DHT22;10795;50.796;3.860;2023-03-04T02:09:11;5.70;99.90
21271;DHT22;10795;50.796;3.860;2023-03-04T02:11:37;5.90;99.90
21271;DHT22;10795;50.796;3.860;2023-03-04T02:14:04;6.10;99.90
21271;DHT22;10795;50.796;3.860;2023-03-04T02:16:31;6.10;99.90
21271;DHT22;10795;50.796;3.860;2023-03-04T02:18:59;6.20;99.90
21271;DHT22;10795;50.796;3.860;2023-03-04T02:21:35;6.00;99.90
21271;DHT22;10795;50.796;3.860;2023-03-04T02:24:40;6.20;99.90
21271;DHT22;10795;50.796;3.860;2023-03-04T02:27:08;6.30;99.90
21271;DHT22;10795;50.796;3.860;2023-03-04T02:29:34;6.20;99.90
21271;DHT22;10795;50.796;3.860;2023-03-04T02:32:01;6.00;99.90
21271;DHT22;10795;50.796;3.860;2023-03-04T02:34:30;6.00;99.90
21271;DHT22;10795;50.796;3.860;2023-03-04T02:36:57;6.00;99.90
21271;DHT22;10795;50.796;3.860;2023-03-04T02:39:35;6.00;99.90
21271;DHT22;10795;50.796;3.860;2023-03-04T02:42:04;6.20;99.90
21271;DHT22;10795;50.796;3.860;2023-03-04T02:44:34;6.30;99.90
21271;DHT22;10795;50.796;3.860;2023-03-04T02:47:02;6.00;99.90
21271;DHT22;10795;50.796;3.860;2023-03-04T02:49:30;6.30;99.90
21271;DHT22;10795;50.796;3.860;2023-03-04T02:52:06;6.40;99.90
21271;DHT22;10795;50.796;3.860;2023-03-04T02:54:32;6.70;99.90
21271;DHT22;10795;50.796;3.860;2023-03-04T02:57:03;6.80;99.90
21271;DHT22;10795;50.796;3.860;2023-03-04T02:59:32;6.50;99.90
21271;DHT22;10795;50.796;3.860;2023-03-04T03:01:58;6.50;99.90
21271;DHT22;10795;50.796;3.860;2023-03-04T03:04:24;6.80;99.90
21271;DHT22;10795;50.796;3.860;2023-03-04T03:06:52;7.00;99.90
21271;DHT22;10795;50.796;3.860;2023-03-04T03:09:18;6.90;99.90
21271;DHT22;10795;50.796;3.860;2023-03-04T03:11:44;7.10;99.90
21271;DHT22;10795;50.796;3.860;2023-03-04T03:14:10;6.80;99.90
21271;DHT22;10795;50.796;3.860;2023-03-04T03:16:36;6.70;99.90
21271;DHT22;10795;50.796;3.860;2023-03-04T03:19:03;7.00;99.90
21271;DHT22;10795;50.796;3.860;2023-03-04T03:21:30;7.10;99.90
21271;DHT22;10795;50.796;3.860;2023-03-04T03:23:56;6.80;99.90
21271;DHT22;10795;50.796;3.860;2023-03-04T03:26:22;6.80;99.90
21271;DHT22;10795;50.796;3.860;2023-03-04T03:28:47;6.90;99.90
21271;DHT22;10795;50.796;3.860;2023-03-04T03:31:13;7.00;99.90
21271;DHT22;10795;50.796;3.860;2023-03-04T03:33:39;7.20;99.90
21271;DHT22;10795;50.796;3.860;2023-03-04T03:36:06;7.00;99.90
21271;DHT22;10795;50.796;3.860;2023-03-04T03:38:32;7.00;99.90
21271;DHT22;10795;50.796;3.860;2023-03-04T03:41:00;7.00;99.90
21271;DHT22;10795;50.796;3.860;2023-03-04T03:43:26;6.80;99.90
21271;DHT22;10795;50.796;3.860;2023-03-04T03:45:52;6.70;99.90
21271;DHT22;10795;50.796;3.860;2023-03-04T03:48:17;6.70;99.90
21271;DHT22;10795;50.796;3.860;2023-03-04T03:50:43;6.80;99.90
21271;DHT22;10795;50.796;3.860;2023-03-04T03:53:10;7.10;99.90
21271;DHT22;10795;50.796;3.860;2023-03-04T03:55:36;7.00;99.90
21271;DHT22;10795;50.796;3.860;2023-03-04T03:58:04;7.00;99.90
21271;DHT22;10795;50.796;3.860;2023-03-04T04:00:29;7.00;99.90
21271;DHT22;10795;50.796;3.860;2023-03-04T04:02:57;7.10;99.90
21271;DHT22;10795;50.796;3.860;2023-03-04T04:05:24;7.10;99.90
21271;DHT22;10795;50.796;3.860;2023-03-04T04:07:50;7.00;99.90
21271;DHT22;10795;50.796;3.860;2023-03-04T04:10:16;6.80;99.90
21271;DHT22;10795;50.796;3.860;2023-03-04T04:12:42;6.90;99.90
21271;DHT22;10795;50.796;3.860;2023-03-04T04:15:10;6.80;99.90
21271;DHT22;10795;50.796;3.860;2023-03-04T04:17:36;6.90;99.90
21271;DHT22;10795;50.796;3.860;2023-03-04T04:20:03;7.00;99.90
21271;DHT22;10795;50.796;3.860;2023-03-04T04:22:28;7.10;99.90
21271;DHT22;10795;50.796;3.860;2023-03-04T04:24:54;6.50;99.90
21271;DHT22;10795;50.796;3.860;2023-03-04T04:27:20;6.30;99.90
21271;DHT22;10795;50.796;3.860;2023-03-04T04:29:47;6.40;99.90
21271;DHT22;10795;50.796;3.860;2023-03-04T04:32:12;6.40;99.90
21271;DHT22;10795;50.796;3.860;2023-03-04T04:34:38;6.20;99.90
21271;DHT22;10795;50.796;3.860;2023-03-04T04:37:04;6.70;99.90
21271;DHT22;10795;50.796;3.860;2023-03-04T04:39:30;6.60;99.90
21271;DHT22;10795;50.796;3.860;2023-03-04T04:41:56;6.70;99.90
21271;DHT22;10795;50.796;3.860;2023-03-04T04:44:21;7.00;99.90
21271;DHT22;10795;50.796;3.860;2023-03-04T04:46:47;7.10;99.90
21271;DHT22;10795;50.796;3.860;2023-03-04T04:49:13;7.10;99.90
21271;DHT22;10795;50.796;3.860;2023-03-04T04:51:39;7.00;99.90
21271;DHT22;10795;50.796;3.860;2023-03-04T04:54:05;6.90;99.90
21271;DHT22;10795;50.796;3.860;2023-03-04T04:56:31;6.60;99.90
21271;DHT22;10795;50.796;3.860;2023-03-04T04:58:59;6.30;99.90
21271;DHT22;10795;50.796;3.860;2023-03-04T05:01:26;6.60;99.90
21271;DHT22;10795;50.796;3.860;2023-03-04T05:03:52;6.40;99.90
21271;DHT22;10795;50.796;3.860;2023-03-04T05:06:20;6.70;99.90
21271;DHT22;10795;50.796;3.860;2023-03-04T05:08:47;6.90;99.90
21271;DHT22;10795;50.796;3.860;2023-03-04T05:11:13;7.10;99.90
21271;DHT22;10795;50.796;3.860;2023-03-04T05:13:39;7.00;99.90
21271;DHT22;10795;50.796;3.860;2023-03-04T05:16:06;7.10;99.90
21271;DHT22;10795;50.796;3.860;2023-03-04T05:18:32;6.90;99.90
21271;DHT22;10795;50.796;3.860;2023-03-04T05:21:00;6.70;99.90
21271;DHT22;10795;50.796;3.860;2023-03-04T05:23:29;6.70;99.90
21271;DHT22;10795;50.796;3.860;2023-03-04T05:25:55;6.90;99.90
21271;DHT22;10795;50.796;3.860;2023-03-04T05:28:21;6.60;99.90
21271;DHT22;10795;50.796;3.860;2023-03-04T05:30:47;6.30;99.90
21271;DHT22;10795;50.796;3.860;2023-03-04T05:33:16;5.90;99.90
21271;DHT22;10795;50.796;3.860;2023-03-04T05:35:42;6.10;99.90
21271;DHT22;10795;50.796;3.860;2023-03-04T05:38:11;6.30;99.90
21271;DHT22;10795;50.796;3.860;2023-03-04T05:40:37;6.50;99.90
21271;DHT22;10795;50.796;3.860;2023-03-04T05:43:04;6.60;99.90
21271;DHT22;10795;50.796;3.860;2023-03-04T05:45:30;6.70;99.90
21271;DHT22;10795;50.796;3.860;2023-03-04T05:47:55;6.80;99.90
21271;DHT22;10795;50.796;3.860;2023-03-04T05:50:22;6.60;99.90
21271;DHT22;10795;50.796;3.860;2023-03-04T05:52:51;6.90;99.90
21271;DHT22;10795;50.796;3.860;2023-03-04T05:55:17;7.10;99.90
21271;DHT22;10795;50.796;3.860;2023-03-04T05:57:43;6.80;99.90
21271;DHT22;10795;50.796;3.860;2023-03-04T06:00:11;6.60;99.90
21271;DHT22;10795;50.796;3.860;2023-03-04T06:02:41;6.50;99.90
21271;DHT22;10795;50.796;3.860;2023-03-04T06:05:08;6.50;99.90
21271;DHT22;10795;50.796;3.860;2023-03-04T06:07:35;6.50;99.90
21271;DHT22;10795;50.796;3.860;2023-03-04T06:10:01;6.40;99.90
21271;DHT22;10795;50.796;3.860;2023-03-04T06:12:26;6.50;99.90
21271;DHT22;10795;50.796;3.860;2023-03-04T06:14:53;6.60;99.90
21271;DHT22;10795;50.796;3.860;2023-03-04T06:17:22;6.70;99.90
21271;DHT22;10795;50.796;3.860;2023-03-04T06:19:47;6.70;99.90
21271;DHT22;10795;50.796;3.860;2023-03-04T06:22:13;6.70;99.90
21271;DHT22;10795;50.796;3.860;2023-03-04T06:24:39;6.50;99.90
21271;DHT22;10795;50.796;3.860;2023-03-04T06:27:05;6.70;99.90
21271;DHT22;10795;50.796;3.860;2023-03-04T06:29:31;6.90;99.90
21271;DHT22;10795;50.796;3.860;2023-03-04T06:31:59;7.00;99.90
21271;DHT22;10795;50.796;3.860;2023-03-04T06:34:25;6.70;99.90
21271;DHT22;10795;50.796;3.860;2023-03-04T06:36:51;6.50;99.90
21271;DHT22;10795;50.796;3.860;2023-03-04T06:39:19;6.60;99.90
21271;DHT22;10795;50.796;3.860;2023-03-04T06:41:45;6.60;99.90
21271;DHT22;10795;50.796;3.860;2023-03-04T06:44:11;6.90;99.90
21271;DHT22;10795;50.796;3.860;2023-03-04T06:46:37;7.10;99.90
21271;DHT22;10795;50.796;3.860;2023-03-04T06:49:02;7.00;99.90
21271;DHT22;10795;50.796;3.860;2023-03-04T06:51:28;7.10;99.90
21271;DHT22;10795;50.796;3.860;2023-03-04T06:53:55;7.00;99.90
21271;DHT22;10795;50.796;3.860;2023-03-04T06:56:21;7.10;99.90
21271;DHT22;10795;50.796;3.860;2023-03-04T06:58:47;7.10;99.90
21271;DHT22;10795;50.796;3.860;2023-03-04T07:01:23;7.00;99.90
21271;DHT22;10795;50.796;3.860;2023-03-04T07:03:50;7.10;99.90
21271;DHT22;10795;50.796;3.860;2023-03-04T07:06:19;7.00;99.90
21271;DHT22;10795;50.796;3.860;2023-03-04T07:08:46;7.10;99.90
21271;DHT22;10795;50.796;3.860;2023-03-04T07:11:12;6.80;99.90
21271;DHT22;10795;50.796;3.860;2023-03-04T07:13:38;6.80;99.90
21271;DHT22;10795;50.796;3.860;2023-03-04T07:16:08;6.70;99.90
21271;DHT22;10795;50.796;3.860;2023-03-04T07:18:35;6.80;99.90
21271;DHT22;10795;50.796;3.860;2023-03-04T07:21:01;6.90;99.90
21271;DHT22;10795;50.796;3.860;2023-03-04T07:23:27;6.80;99.90
21271;DHT22;10795;50.796;3.860;2023-03-04T07:25:53;7.00;99.90
21271;DHT22;10795;50.796;3.860;2023-03-04T07:28:19;7.20;99.90
21271;DHT22;10795;50.796;3.860;2023-03-04T07:30:45;7.30;99.90
21271;DHT22;10795;50.796;3.860;2023-03-04T07:33:12;7.10;99.90
21271;DHT22;10795;50.796;3.860;2023-03-04T07:35:38;6.80;99.90
21271;DHT22;10795;50.796;3.860;2023-03-04T07:38:05;6.90;99.90
21271;DHT22;10795;50.796;3.860;2023-03-04T07:40:30;7.00;99.90
21271;DHT22;10795;50.796;3.860;2023-03-04T07:42:56;6.80;99.90
21271;DHT22;10795;50.796;3.860;2023-03-04T07:45:23;7.00;99.90
21271;DHT22;10795;50.796;3.860;2023-03-04T07:47:49;6.80;99.90
21271;DHT22;10795;50.796;3.860;2023-03-04T07:50:16;6.60;99.90
21271;DHT22;10795;50.796;3.860;2023-03-04T07:52:45;6.90;99.90
21271;DHT22;10795;50.796;3.860;2023-03-04T07:55:13;6.80;99.90
21271;DHT22;10795;50.796;3.860;2023-03-04T07:57:44;6.80;99.90
21271;DHT22;10795;50.796;3.860;2023-03-04T08:00:12;6.70;99.90
21271;DHT22;10795;50.796;3.860;2023-03-04T08:02:39;6.70;99.90
21271;DHT22;10795;50.796;3.860;2023-03-04T08:05:05;6.70;99.90
21271;DHT22;10795;50.796;3.860;2023-03-04T08:07:31;6.50;99.90
21271;DHT22;10795;50.796;3.860;2023-03-04T08:09:57;6.40;99.90
21271;DHT22;10795;50.796;3.860;2023-03-04T08:12:23;6.70;99.90
21271;DHT22;10795;50.796;3.860;2023-03-04T08:14:50;6.80;99.90
21271;DHT22;10795;50.796;3.860;2023-03-04T08:17:17;7.00;99.90
21271;DHT22;10795;50.796;3.860;2023-03-04T08:19:43;7.10;99.90
21271;DHT22;10795;50.796;3.860;2023-03-04T08:22:09;7.00;99.90
21271;DHT22;10795;50.796;3.860;2023-03-04T08:24:35;7.00;99.90
21271;DHT22;10795;50.796;3.860;2023-03-04T08:27:01;7.20;99.90
21271;DHT22;10795;50.796;3.860;2023-03-04T08:29:27;7.40;99.90
21271;DHT22;10795;50.796;3.860;2023-03-04T08:31:54;7.20;99.90
21271;DHT22;10795;50.796;3.860;2023-03-04T08:34:22;7.10;99.90
21271;DHT22;10795;50.796;3.860;2023-03-04T08:36:49;7.30;99.90
21271;DHT22;10795;50.796;3.860;2023-03-04T08:39:16;7.20;99.90
21271;DHT22;10795;50.796;3.860;2023-03-04T08:41:42;7.10;99.90
21271;DHT22;10795;50.796;3.860;2023-03-04T08:44:08;7.20;99.90
21271;DHT22;10795;50.796;3.860;2023-03-04T08:46:40;7.00;99.90
21271;DHT22;10795;50.796;3.860;2023-03-04T08:49:06;7.50;99.90
21271;DHT22;10795;50.796;3.860;2023-03-04T08:51:34;7.50;99.90
21271;DHT22;10795;50.796;3.860;2023-03-04T08:54:03;7.40;99.90
21271;DHT22;10795;50.796;3.860;2023-03-04T08:56:29;7.30;99.90
21271;DHT22;10795;50.796;3.860;2023-03-04T08:58:55;7.40;99.90
21271;DHT22;10795;50.796;3.860;2023-03-04T09:01:21;7.40;99.90
21271;DHT22;10795;50.796;3.860;2023-03-04T09:03:47;7.50;99.90
21271;DHT22;10795;50.796;3.860;2023-03-04T09:06:15;7.50;99.90
21271;DHT22;10795;50.796;3.860;2023-03-04T09:08:42;7.40;99.90
21271;DHT22;10795;50.796;3.860;2023-03-04T09:11:08;7.20;99.90
21271;DHT22;10795;50.796;3.860;2023-03-04T09:13:34;7.60;99.90
21271;DHT22;10795;50.796;3.860;2023-03-04T09:16:10;7.70;99.90
21271;DHT22;10795;50.796;3.860;2023-03-04T09:18:37;8.00;99.90
21271;DHT22;10795;50.796;3.860;2023-03-04T09:21:05;8.10;99.90
21271;DHT22;10795;50.796;3.860;2023-03-04T09:23:30;8.00;99.90
21271;DHT22;10795;50.796;3.860;2023-03-04T09:25:56;7.80;99.90
21271;DHT22;10795;50.796;3.860;2023-03-04T09:28:22;7.70;99.90
21271;DHT22;10795;50.796;3.860;2023-03-04T09:30:48;7.70;99.90
21271;DHT22;10795;50.796;3.860;2023-03-04T09:33:14;7.80;99.90
21271;DHT22;10795;50.796;3.860;2023-03-04T09:35:40;7.20;99.90
21271;DHT22;10795;50.796;3.860;2023-03-04T09:38:06;6.90;99.90
21271;DHT22;10795;50.796;3.860;2023-03-04T09:40:41;7.00;99.90
21271;DHT22;10795;50.796;3.860;2023-03-04T09:43:17;7.00;99.90
21271;DHT22;10795;50.796;3.860;2023-03-04T09:45:51;7.00;99.90
21271;DHT22;10795;50.796;3.860;2023-03-04T09:48:21;7.20;99.90
21271;DHT22;10795;50.796;3.860;2023-03-04T09:56:37;7.40;99.90
21271;DHT22;10795;50.796;3.860;2023-03-04T09:59:27;7.40;99.90
21271;DHT22;10795;50.796;3.860;2023-03-04T10:01:58;7.50;99.90
21271;DHT22;10795;50.796;3.860;2023-03-04T10:04:35;7.70;99.90
21271;DHT22;10795;50.796;3.860;2023-03-04T10:07:08;8.00;99.90
21271;DHT22;10795;50.796;3.860;2023-03-04T10:09:42;8.10;99.90
21271;DHT22;10795;50.796;3.860;2023-03-04T10:12:13;8.40;99.90
21271;DHT22;10795;50.796;3.860;2023-03-04T10:14:43;8.50;99.90
21271;DHT22;10795;50.796;3.860;2023-03-04T10:17:35;8.00;99.90
21271;DHT22;10795;50.796;3.860;2023-03-04T10:20:20;8.40;99.90
21271;DHT22;10795;50.796;3.860;2023-03-04T10:22:47;8.40;99.90
21271;DHT22;10795;50.796;3.860;2023-03-04T10:27:41;8.60;99.90
21271;DHT22;10795;50.796;3.860;2023-03-04T10:33:01;8.80;99.90
21271;DHT22;10795;50.796;3.860;2023-03-04T10:35:33;8.70;99.90
21271;DHT22;10795;50.796;3.860;2023-03-04T10:38:02;8.90;99.90
21271;DHT22;10795;50.796;3.860;2023-03-04T10:40:28;8.90;99.90
21271;DHT22;10795;50.796;3.860;2023-03-04T10:42:54;8.70;99.90
21271;DHT22;10795;50.796;3.860;2023-03-04T10:45:23;8.50;99.90
21271;DHT22;10795;50.796;3.860;2023-03-04T10:47:54;8.80;99.90
21271;DHT22;10795;50.796;3.860;2023-03-04T10:50:22;8.80;99.90
21271;DHT22;10795;50.796;3.860;2023-03-04T10:52:49;8.80;99.90
21271;DHT22;10795;50.796;3.860;2023-03-04T10:55:27;8.70;99.90
21271;DHT22;10795;50.796;3.860;2023-03-04T10:57:57;8.30;99.90
21271;DHT22;10795;50.796;3.860;2023-03-04T11:00:29;8.10;99.90
21271;DHT22;10795;50.796;3.860;2023-03-04T11:06:18;8.60;99.90
21271;DHT22;10795;50.796;3.860;2023-03-04T11:08:44;8.60;99.90
21271;DHT22;10795;50.796;3.860;2023-03-04T11:14:13;8.90;99.90
21271;DHT22;10795;50.796;3.860;2023-03-04T11:16:52;8.80;99.90
21271;DHT22;10795;50.796;3.860;2023-03-04T11:19:19;9.20;99.90
21271;DHT22;10795;50.796;3.860;2023-03-04T11:21:46;9.00;99.90
21271;DHT22;10795;50.796;3.860;2023-03-04T11:24:18;9.40;99.90
21271;DHT22;10795;50.796;3.860;2023-03-04T11:29:50;9.80;99.90
21271;DHT22;10795;50.796;3.860;2023-03-04T11:32:27;9.90;99.90
21271;DHT22;10795;50.796;3.860;2023-03-04T11:35:13;10.00;99.90
21271;DHT22;10795;50.796;3.860;2023-03-04T11:43:02;10.00;99.90
21271;DHT22;10795;50.796;3.860;2023-03-04T11:54:36;10.20;99.90
21271;DHT22;10795;50.796;3.860;2023-03-04T11:59:48;9.90;99.90
21271;DHT22;10795;50.796;3.860;2023-03-04T12:02:20;10.00;99.90
21271;DHT22;10795;50.796;3.860;2023-03-04T12:10:24;9.70;99.90
21271;DHT22;10795;50.796;3.860;2023-03-04T12:27:02;9.70;99.90
21271;DHT22;10795;50.796;3.860;2023-03-04T12:29:45;9.90;99.90
21271;DHT22;10795;50.796;3.860;2023-03-04T12:34:55;9.60;99.90
21271;DHT22;10795;50.796;3.860;2023-03-04T12:43:18;10.10;99.90
21271;DHT22;10795;50.796;3.860;2023-03-04T12:46:17;10.50;99.90
21271;DHT22;10795;50.796;3.860;2023-03-04T12:48:51;10.50;99.90
21271;DHT22;10795;50.796;3.860;2023-03-04T12:56:38;10.50;99.90
21271;DHT22;10795;50.796;3.860;2023-03-04T12:59:05;11.10;99.90
21271;DHT22;10795;50.796;3.860;2023-03-04T13:01:37;10.80;99.90
21271;DHT22;10795;50.796;3.860;2023-03-04T13:04:26;10.50;99.90
21271;DHT22;10795;50.796;3.860;2023-03-04T13:07:23;10.50;99.90
21271;DHT22;10795;50.796;3.860;2023-03-04T13:10:41;10.40;99.90
21271;DHT22;10795;50.796;3.860;2023-03-04T13:13:40;10.10;99.90
21271;DHT22;10795;50.796;3.860;2023-03-04T13:16:30;10.00;99.90
21271;DHT22;10795;50.796;3.860;2023-03-04T13:18:57;9.70;99.90
21271;DHT22;10795;50.796;3.860;2023-03-04T13:21:28;10.00;99.90
21271;DHT22;10795;50.796;3.860;2023-03-04T13:23:57;9.60;99.90
21271;DHT22;10795;50.796;3.860;2023-03-04T13:26:43;9.80;99.90
21271;DHT22;10795;50.796;3.860;2023-03-04T13:29:30;9.60;99.90
21271;DHT22;10795;50.796;3.860;2023-03-04T13:32:04;9.50;99.90
21271;DHT22;10795;50.796;3.860;2023-03-04T13:34:43;10.00;99.90
21271;DHT22;10795;50.796;3.860;2023-03-04T13:37:32;9.60;99.90
21271;DHT22;10795;50.796;3.860;2023-03-04T13:42:49;9.30;99.90
21271;DHT22;10795;50.796;3.860;2023-03-04T13:45:34;9.70;99.90
21271;DHT22;10795;50.796;3.860;2023-03-04T13:48:03;10.00;99.90
21271;DHT22;10795;50.796;3.860;2023-03-04T13:50:47;10.20;99.90
21271;DHT22;10795;50.796;3.860;2023-03-04T13:53:37;9.90;99.90
21271;DHT22;10795;50.796;3.860;2023-03-04T13:56:11;9.90;99.90
21271;DHT22;10795;50.796;3.860;2023-03-04T13:58:38;9.70;99.90
21271;DHT22;10795;50.796;3.860;2023-03-04T14:01:16;9.80;99.90
21271;DHT22;10795;50.796;3.860;2023-03-04T14:03:44;9.90;99.90
21271;DHT22;10795;50.796;3.860;2023-03-04T14:06:12;9.80;99.90
21271;DHT22;10795;50.796;3.860;2023-03-04T14:08:44;10.00;99.90
21271;DHT22;10795;50.796;3.860;2023-03-04T14:11:12;10.10;99.90
21271;DHT22;10795;50.796;3.860;2023-03-04T14:13:39;9.80;99.90
21271;DHT22;10795;50.796;3.860;2023-03-04T14:16:05;9.40;99.90
21271;DHT22;10795;50.796;3.860;2023-03-04T14:18:31;9.10;99.90
21271;DHT22;10795;50.796;3.860;2023-03-04T14:20:58;9.20;99.90
21271;DHT22;10795;50.796;3.860;2023-03-04T14:23:35;9.50;99.90
21271;DHT22;10795;50.796;3.860;2023-03-04T14:26:09;9.90;99.90
21271;DHT22;10795;50.796;3.860;2023-03-04T14:28:46;9.80;99.90
21271;DHT22;10795;50.796;3.860;2023-03-04T14:31:18;9.30;99.90
21271;DHT22;10795;50.796;3.860;2023-03-04T14:33:47;9.10;99.90
21271;DHT22;10795;50.796;3.860;2023-03-04T14:36:19;9.40;99.90
21271;DHT22;10795;50.796;3.860;2023-03-04T14:38:54;9.10;99.90
21271;DHT22;10795;50.796;3.860;2023-03-04T14:41:33;9.60;99.90
21271;DHT22;10795;50.796;3.860;2023-03-04T14:44:05;10.10;99.90
21271;DHT22;10795;50.796;3.860;2023-03-04T14:46:39;10.00;99.90
21271;DHT22;10795;50.796;3.860;2023-03-04T14:49:11;10.20;99.90
21271;DHT22;10795;50.796;3.860;2023-03-04T14:51:50;10.00;99.90
21271;DHT22;10795;50.796;3.860;2023-03-04T14:57:15;10.20;99.90
21271;DHT22;10795;50.796;3.860;2023-03-04T14:59:44;10.50;99.90
21271;DHT22;10795;50.796;3.860;2023-03-04T15:02:19;9.80;99.90
21271;DHT22;10795;50.796;3.860;2023-03-04T15:04:47;10.20;99.90
21271;DHT22;10795;50.796;3.860;2023-03-04T15:07:33;9.70;99.90
21271;DHT22;10795;50.796;3.860;2023-03-04T15:10:02;9.80;99.90
21271;DHT22;10795;50.796;3.860;2023-03-04T15:12:32;10.00;99.90
21271;DHT22;10795;50.796;3.860;2023-03-04T15:15:00;10.20;99.90
21271;DHT22;10795;50.796;3.860;2023-03-04T15:17:35;10.10;99.90
21271;DHT22;10795;50.796;3.860;2023-03-04T15:22:59;9.80;99.90
21271;DHT22;10795;50.796;3.860;2023-03-04T15:25:25;10.10;99.90
21271;DHT22;10795;50.796;3.860;2023-03-04T15:27:51;9.80;99.90
21271;DHT22;10795;50.796;3.860;2023-03-04T15:30:21;9.60;99.90
21271;DHT22;10795;50.796;3.860;2023-03-04T15:32:49;10.00;99.90
21271;DHT22;10795;50.796;3.860;2023-03-04T15:35:17;9.80;99.90
21271;DHT22;10795;50.796;3.860;2023-03-04T15:37:43;10.00;99.90
21271;DHT22;10795;50.796;3.860;2023-03-04T15:40:34;9.60;99.90
21271;DHT22;10795;50.796;3.860;2023-03-04T15:43:02;9.60;99.90
21271;DHT22;10795;50.796;3.860;2023-03-04T15:45:33;9.70;99.90
21271;DHT22;10795;50.796;3.860;2023-03-04T15:48:08;10.10;99.90
21271;DHT22;10795;50.796;3.860;2023-03-04T15:50:55;10.30;99.90
21271;DHT22;10795;50.796;3.860;2023-03-04T15:53:33;10.40;99.90
21271;DHT22;10795;50.796;3.860;2023-03-04T15:56:01;10.60;99.90
21271;DHT22;10795;50.796;3.860;2023-03-04T15:58:27;10.40;99.90
21271;DHT22;10795;50.796;3.860;2023-03-04T16:00:53;10.50;99.90
21271;DHT22;10795;50.796;3.860;2023-03-04T16:03:20;10.50;99.90
21271;DHT22;10795;50.796;3.860;2023-03-04T16:05:47;10.60;99.90
21271;DHT22;10795;50.796;3.860;2023-03-04T16:08:16;10.70;99.90
21271;DHT22;10795;50.796;3.860;2023-03-04T16:10:43;10.70;99.90
21271;DHT22;10795;50.796;3.860;2023-03-04T16:13:15;10.70;99.90
21271;DHT22;10795;50.796;3.860;2023-03-04T16:15:41;10.50;99.90
21271;DHT22;10795;50.796;3.860;2023-03-04T16:18:09;10.60;99.90
21271;DHT22;10795;50.796;3.860;2023-03-04T16:20:36;10.40;99.90
21271;DHT22;10795;50.796;3.860;2023-03-04T16:23:03;10.30;99.90
21271;DHT22;10795;50.796;3.860;2023-03-04T16:25:29;10.20;99.90
21271;DHT22;10795;50.796;3.860;2023-03-04T16:27:56;10.10;99.90
21271;DHT22;10795;50.796;3.860;2023-03-04T16:30:26;10.40;99.90
21271;DHT22;10795;50.796;3.860;2023-03-04T16:32:52;10.30;99.90
21271;DHT22;10795;50.796;3.860;2023-03-04T16:35:19;10.50;99.90
21271;DHT22;10795;50.796;3.860;2023-03-04T16:37:45;10.60;99.90
21271;DHT22;10795;50.796;3.860;2023-03-04T16:40:16;10.50;99.90
21271;DHT22;10795;50.796;3.860;2023-03-04T16:42:42;10.40;99.90
21271;DHT22;10795;50.796;3.860;2023-03-04T16:45:19;10.50;99.90
21271;DHT22;10795;50.796;3.860;2023-03-04T16:47:45;10.40;99.90
21271;DHT22;10795;50.796;3.860;2023-03-04T16:50:13;9.90;99.90
21271;DHT22;10795;50.796;3.860;2023-03-04T16:52:43;9.30;99.90
21271;DHT22;10795;50.796;3.860;2023-03-04T16:55:19;9.10;99.90
21271;DHT22;10795;50.796;3.860;2023-03-04T16:57:45;9.20;99.90
21271;DHT22;10795;50.796;3.860;2023-03-04T17:00:12;9.00;99.90
21271;DHT22;10795;50.796;3.860;2023-03-04T17:02:39;8.60;99.90
21271;DHT22;10795;50.796;3.860;2023-03-04T17:05:05;8.60;99.90
21271;DHT22;10795;50.796;3.860;2023-03-04T17:07:31;8.70;99.90
21271;DHT22;10795;50.796;3.860;2023-03-04T17:09:57;8.70;99.90
21271;DHT22;10795;50.796;3.860;2023-03-04T17:12:23;8.70;99.90
21271;DHT22;10795;50.796;3.860;2023-03-04T17:14:48;9.30;99.90
21271;DHT22;10795;50.796;3.860;2023-03-04T17:17:14;9.70;99.90